sensor_id;sensor_type;location;lat;lon;timestamp;temperature;humidity
65637;DHT22;52327;42.622;23.316;2023-04-24T04:58:19;8.57;82.59
65637;DHT22;52327;42.622;23.316;2023-04-24T05:00:45;8.88;82.67
65637;DHT22;52327;42.622;23.316;2023-04-24T05:03:11;9.26;82.14
65637;DHT22;52327;42.622;23.316;2023-04-24T05:05:36;9.57;81.66
65637;DHT22;52327;42.622;23.316;2023-04-24T05:08:06;9.80;80.59
65637;DHT22;52327;42.622;23.316;2023-04-24T05:10:32;9.97;79.91
65637;DHT22;52327;42.622;23.316;2023-04-24T05:12:57;10.17;79.81
65637;DHT22;52327;42.622;23.316;2023-04-24T05:15:22;10.22;76.80
65637;DHT22;52327;42.622;23.316;2023-04-24T05:17:48;10.20;77.20
65637;DHT22;52327;42.622;23.316;2023-04-24T05:20:13;10.32;77.55
65637;DHT22;52327;42.622;23.316;2023-04-24T05:22:39;10.46;77.69
65637;DHT22;52327;42.622;23.316;2023-04-24T05:25:05;10.48;73.39
65637;DHT22;52327;42.622;23.316;2023-04-24T05:27:31;10.34;73.14
65637;DHT22;52327;42.622;23.316;2023-04-24T05:29:56;10.32;72.39
65637;DHT22;52327;42.622;23.316;2023-04-24T05:32:21;10.34;73.34
65637;DHT22;52327;42.622;23.316;2023-04-24T05:34:47;10.40;73.67
65637;DHT22;52327;42.622;23.316;2023-04-24T05:37:12;10.38;71.86
65637;DHT22;52327;42.622;23.316;2023-04-24T05:39:38;10.46;73.84
65637;DHT22;52327;42.622;23.316;2023-04-24T05:42:03;10.52;74.55
65637;DHT22;52327;42.622;23.316;2023-04-24T05:44:30;10.65;74.55
65637;DHT22;52327;42.622;23.316;2023-04-24T05:46:55;10.76;75.08
65637;DHT22;52327;42.622;23.316;2023-04-24T05:49:21;10.96;75.68
65637;DHT22;52327;42.622;23.316;2023-04-24T05:51:47;11.06;75.40
65637;DHT22;52327;42.622;23.316;2023-04-24T05:54:12;11.30;74.88
65637;DHT22;52327;42.622;23.316;2023-04-24T05:56:38;11.50;74.28
65637;DHT22;52327;42.622;23.316;2023-04-24T05:59:04;11.60;71.91
65637;DHT22;52327;42.622;23.316;2023-04-24T06:01:29;11.78;69.56
65637;DHT22;52327;42.622;23.316;2023-04-24T06:04:05;11.91;69.53
65637;DHT22;52327;42.622;23.316;2023-04-24T06:06:31;12.22;68.01
65637;DHT22;52327;42.622;23.316;2023-04-24T06:08:57;12.30;67.12
65637;DHT22;52327;42.622;23.316;2023-04-24T06:11:24;12.49;66.44
65637;DHT22;52327;42.622;23.316;2023-04-24T06:13:50;12.42;65.75
65637;DHT22;52327;42.622;23.316;2023-04-24T06:16:15;12.42;65.80
65637;DHT22;52327;42.622;23.316;2023-04-24T06:18:41;12.42;66.63
65637;DHT22;52327;42.622;23.316;2023-04-24T06:21:06;12.45;67.35
65637;DHT22;52327;42.622;23.316;2023-04-24T06:23:31;12.42;66.42
65637;DHT22;52327;42.622;23.316;2023-04-24T06:25:58;12.29;65.95
65637;DHT22;52327;42.622;23.316;2023-04-24T06:28:24;12.15;66.49
65637;DHT22;52327;42.622;23.316;2023-04-24T06:30:49;12.28;66.80
65637;DHT22;52327;42.622;23.316;2023-04-24T06:33:16;12.50;66.34
65637;DHT22;52327;42.622;23.316;2023-04-24T06:35:41;12.64;65.59
65637;DHT22;52327;42.622;23.316;2023-04-24T06:38:07;12.79;65.37
65637;DHT22;52327;42.622;23.316;2023-04-24T06:40:32;12.98;65.55
65637;DHT22;52327;42.622;23.316;2023-04-24T06:42:58;13.06;65.38
65637;DHT22;52327;42.622;23.316;2023-04-24T06:45:25;13.14;63.79
65637;DHT22;52327;42.622;23.316;2023-04-24T06:47:51;13.14;63.19
65637;DHT22;52327;42.622;23.316;2023-04-24T06:50:16;12.79;63.52
65637;DHT22;52327;42.622;23.316;2023-04-24T06:52:42;12.91;63.48
65637;DHT22;52327;42.622;23.316;2023-04-24T06:55:07;12.75;63.33
65637;DHT22;52327;42.622;23.316;2023-04-24T06:57:33;12.75;62.45
65637;DHT22;52327;42.622;23.316;2023-04-24T06:59:58;12.90;62.38
65637;DHT22;52327;42.622;23.316;2023-04-24T07:02:27;12.88;61.66
65637;DHT22;52327;42.622;23.316;2023-04-24T07:04:53;13.03;62.74
65637;DHT22;52327;42.622;23.316;2023-04-24T07:07:18;13.17;62.62
65637;DHT22;52327;42.622;23.316;2023-04-24T07:09:44;13.19;59.79
65637;DHT22;52327;42.622;23.316;2023-04-24T07:12:10;13.28;59.78
65637;DHT22;52327;42.622;23.316;2023-04-24T07:14:37;13.54;59.18
65637;DHT22;52327;42.622;23.316;2023-04-24T07:17:03;13.62;58.96
65637;DHT22;52327;42.622;23.316;2023-04-24T07:19:29;13.59;59.37
65637;DHT22;52327;42.622;23.316;2023-04-24T07:21:55;13.48;58.98
65637;DHT22;52327;42.622;23.316;2023-04-24T07:24:23;13.32;60.41
65637;DHT22;52327;42.622;23.316;2023-04-24T07:26:50;13.34;59.74
65637;DHT22;52327;42.622;23.316;2023-04-24T07:29:16;13.31;59.46
65637;DHT22;52327;42.622;23.316;2023-04-24T07:31:42;13.10;60.20
65637;DHT22;52327;42.622;23.316;2023-04-24T07:34:07;13.37;59.74
65637;DHT22;52327;42.622;23.316;2023-04-24T07:36:33;13.44;59.35
65637;DHT22;52327;42.622;23.316;2023-04-24T07:38:58;13.58;59.95
65637;DHT22;52327;42.622;23.316;2023-04-24T07:41:23;13.59;58.12
65637;DHT22;52327;42.622;23.316;2023-04-24T07:43:49;13.87;57.03
65637;DHT22;52327;42.622;23.316;2023-04-24T07:46:15;14.03;57.21
65637;DHT22;52327;42.622;23.316;2023-04-24T07:48:40;14.12;57.35
65637;DHT22;52327;42.622;23.316;2023-04-24T07:51:06;14.06;57.65
65637;DHT22;52327;42.622;23.316;2023-04-24T07:53:31;13.96;58.18
65637;DHT22;52327;42.622;23.316;2023-04-24T07:55:56;13.87;57.28
65637;DHT22;52327;42.622;23.316;2023-04-24T07:58:22;13.89;57.93
65637;DHT22;52327;42.622;23.316;2023-04-24T08:00:48;14.00;57.99
65637;DHT22;52327;42.622;23.316;2023-04-24T08:03:13;14.06;57.13
65637;DHT22;52327;42.622;23.316;2023-04-24T08:05:39;14.03;58.19
65637;DHT22;52327;42.622;23.316;2023-04-24T08:08:04;14.14;58.45
65637;DHT22;52327;42.622;23.316;2023-04-24T08:10:30;14.13;56.75
65637;DHT22;52327;42.622;23.316;2023-04-24T08:12:55;14.30;57.49
65637;DHT22;52327;42.622;23.316;2023-04-24T08:15:21;14.40;56.67
65637;DHT22;52327;42.622;23.316;2023-04-24T08:17:46;14.34;55.51
65637;DHT22;52327;42.622;23.316;2023-04-24T08:20:12;14.41;55.57
65637;DHT22;52327;42.622;23.316;2023-04-24T08:22:41;14.45;56.37
65637;DHT22;52327;42.622;23.316;2023-04-24T08:25:07;14.75;55.98
65637;DHT22;52327;42.622;23.316;2023-04-24T08:27:33;14.89;54.82
65637;DHT22;52327;42.622;23.316;2023-04-24T08:29:58;14.91;55.92
65637;DHT22;52327;42.622;23.316;2023-04-24T08:32:25;15.03;55.31
65637;DHT22;52327;42.622;23.316;2023-04-24T08:34:54;15.06;55.07
65637;DHT22;52327;42.622;23.316;2023-04-24T08:37:25;14.89;54.70
65637;DHT22;52327;42.622;23.316;2023-04-24T08:39:50;14.99;54.83
65637;DHT22;52327;42.622;23.316;2023-04-24T08:42:20;14.85;54.88
65637;DHT22;52327;42.622;23.316;2023-04-24T08:44:47;14.64;53.92
65637;DHT22;52327;42.622;23.316;2023-04-24T08:47:14;14.59;55.01
65637;DHT22;52327;42.622;23.316;2023-04-24T08:49:40;14.59;55.20
65637;DHT22;52327;42.622;23.316;2023-04-24T08:52:05;14.64;55.17
65637;DHT22;52327;42.622;23.316;2023-04-24T08:54:34;14.71;55.44
65637;DHT22;52327;42.622;23.316;2023-04-24T08:57:01;14.84;55.12
65637;DHT22;52327;42.622;23.316;2023-04-24T08:59:29;15.26;55.18
65637;DHT22;52327;42.622;23.316;2023-04-24T09:01:55;15.42;54.32
65637;DHT22;52327;42.622;23.316;2023-04-24T09:04:22;15.50;52.14
65637;DHT22;52327;42.622;23.316;2023-04-24T09:06:50;15.18;54.44
65637;DHT22;52327;42.622;23.316;2023-04-24T09:09:17;15.32;53.72
65637;DHT22;52327;42.622;23.316;2023-04-24T09:11:43;15.73;53.84
65637;DHT22;52327;42.622;23.316;2023-04-24T09:14:09;15.98;52.76
65637;DHT22;52327;42.622;23.316;2023-04-24T09:16:35;16.26;52.32
65637;DHT22;52327;42.622;23.316;2023-04-24T09:19:01;16.51;52.33
65637;DHT22;52327;42.622;23.316;2023-04-24T09:21:31;16.64;51.08
65637;DHT22;52327;42.622;23.316;2023-04-24T09:24:05;16.47;50.28
65637;DHT22;52327;42.622;23.316;2023-04-24T09:26:32;16.55;50.57
65637;DHT22;52327;42.622;23.316;2023-04-24T09:28:58;16.83;51.24
65637;DHT22;52327;42.622;23.316;2023-04-24T09:31:23;17.02;50.50
65637;DHT22;52327;42.622;23.316;2023-04-24T09:36:32;17.16;49.13
65637;DHT22;52327;42.622;23.316;2023-04-24T09:39:11;17.13;48.96
65637;DHT22;52327;42.622;23.316;2023-04-24T09:44:21;17.15;48.90
65637;DHT22;52327;42.622;23.316;2023-04-24T09:46:54;17.05;48.67
65637;DHT22;52327;42.622;23.316;2023-04-24T09:49:24;17.10;49.59
65637;DHT22;52327;42.622;23.316;2023-04-24T09:51:50;17.24;50.94
65637;DHT22;52327;42.622;23.316;2023-04-24T09:54:21;17.55;50.33
65637;DHT22;52327;42.622;23.316;2023-04-24T09:56:48;17.60;49.07
65637;DHT22;52327;42.622;23.316;2023-04-24T09:59:16;17.37;48.74
65637;DHT22;52327;42.622;23.316;2023-04-24T10:01:41;16.97;48.80
65637;DHT22;52327;42.622;23.316;2023-04-24T10:04:21;17.43;49.45
65637;DHT22;52327;42.622;23.316;2023-04-24T10:06:49;17.79;47.97
65637;DHT22;52327;42.622;23.316;2023-04-24T10:09:16;17.88;47.54
65637;DHT22;52327;42.622;23.316;2023-04-24T10:11:43;17.95;47.24
65637;DHT22;52327;42.622;23.316;2023-04-24T10:14:20;17.68;46.04
65637;DHT22;52327;42.622;23.316;2023-04-24T10:16:46;17.66;46.14
65637;DHT22;52327;42.622;23.316;2023-04-24T10:19:14;17.60;47.48
65637;DHT22;52327;42.622;23.316;2023-04-24T10:21:41;17.79;46.47
65637;DHT22;52327;42.622;23.316;2023-04-24T10:24:08;18.16;45.90
65637;DHT22;52327;42.622;23.316;2023-04-24T10:26:34;18.33;46.73
65637;DHT22;52327;42.622;23.316;2023-04-24T10:29:00;18.83;45.50
65637;DHT22;52327;42.622;23.316;2023-04-24T10:31:27;19.22;45.26
65637;DHT22;52327;42.622;23.316;2023-04-24T10:33:56;19.72;44.07
65637;DHT22;52327;42.622;23.316;2023-04-24T10:36:23;20.30;42.11
65637;DHT22;52327;42.622;23.316;2023-04-24T10:38:52;20.51;41.48
65637;DHT22;52327;42.622;23.316;2023-04-24T10:41:20;20.65;41.09
65637;DHT22;52327;42.622;23.316;2023-04-24T10:44:10;21.06;39.36
65637;DHT22;52327;42.622;23.316;2023-04-24T10:46:35;21.09;38.72
65637;DHT22;52327;42.622;23.316;2023-04-24T10:49:05;20.67;38.22
65637;DHT22;52327;42.622;23.316;2023-04-24T10:54:27;20.51;38.55
65637;DHT22;52327;42.622;23.316;2023-04-24T10:56:55;20.74;38.86
65637;DHT22;52327;42.622;23.316;2023-04-24T10:59:38;20.82;37.84
65637;DHT22;52327;42.622;23.316;2023-04-24T11:02:07;20.48;37.70
65637;DHT22;52327;42.622;23.316;2023-04-24T11:04:33;20.27;39.02
65637;DHT22;52327;42.622;23.316;2023-04-24T11:07:00;20.03;39.04
65637;DHT22;52327;42.622;23.316;2023-04-24T11:09:35;20.17;39.95
65637;DHT22;52327;42.622;23.316;2023-04-24T11:17:34;19.87;39.35
65637;DHT22;52327;42.622;23.316;2023-04-24T11:20:16;19.65;40.72
65637;DHT22;52327;42.622;23.316;2023-04-24T11:22:42;19.76;40.88
65637;DHT22;52327;42.622;23.316;2023-04-24T11:25:08;19.66;43.13
65637;DHT22;52327;42.622;23.316;2023-04-24T11:27:44;18.87;51.10
65637;DHT22;52327;42.622;23.316;2023-04-24T11:30:11;18.13;54.50
65637;DHT22;52327;42.622;23.316;2023-04-24T11:32:39;17.34;59.47
65637;DHT22;52327;42.622;23.316;2023-04-24T11:35:13;16.69;65.35
65637;DHT22;52327;42.622;23.316;2023-04-24T11:37:40;16.36;70.21
65637;DHT22;52327;42.622;23.316;2023-04-24T11:40:12;16.24;72.93
65637;DHT22;52327;42.622;23.316;2023-04-24T11:42:51;16.04;71.17
65637;DHT22;52327;42.622;23.316;2023-04-24T11:45:29;15.80;69.97
65637;DHT22;52327;42.622;23.316;2023-04-24T11:47:55;15.76;72.95
65637;DHT22;52327;42.622;23.316;2023-04-24T11:50:26;15.97;68.64
65637;DHT22;52327;42.622;23.316;2023-04-24T11:52:53;16.15;70.62
65637;DHT22;52327;42.622;23.316;2023-04-24T11:57:45;16.89;67.77
65637;DHT22;52327;42.622;23.316;2023-04-24T12:00:23;17.68;64.93
65637;DHT22;52327;42.622;23.316;2023-04-24T12:02:49;18.13;65.37
65637;DHT22;52327;42.622;23.316;2023-04-24T12:05:22;18.90;56.91
65637;DHT22;52327;42.622;23.316;2023-04-24T12:07:48;19.58;57.81
65637;DHT22;52327;42.622;23.316;2023-04-24T12:10:13;20.12;53.08
65637;DHT22;52327;42.622;23.316;2023-04-24T12:12:40;20.37;50.61
65637;DHT22;52327;42.622;23.316;2023-04-24T12:15:08;20.16;52.32
65637;DHT22;52327;42.622;23.316;2023-04-24T12:17:35;19.71;51.11
65637;DHT22;52327;42.622;23.316;2023-04-24T12:20:06;20.64;50.15
65637;DHT22;52327;42.622;23.316;2023-04-24T12:22:52;19.73;49.27
65637;DHT22;52327;42.622;23.316;2023-04-24T12:25:22;18.93;51.15
65637;DHT22;52327;42.622;23.316;2023-04-24T12:30:31;18.89;55.87
65637;DHT22;52327;42.622;23.316;2023-04-24T12:32:58;19.99;54.15
65637;DHT22;52327;42.622;23.316;2023-04-24T12:35:25;20.47;51.19
65637;DHT22;52327;42.622;23.316;2023-04-24T12:37:51;20.27;51.29
65637;DHT22;52327;42.622;23.316;2023-04-24T12:40:18;20.81;47.90
65637;DHT22;52327;42.622;23.316;2023-04-24T12:42:50;22.03;49.07
65637;DHT22;52327;42.622;23.316;2023-04-24T12:45:18;22.96;48.98
65637;DHT22;52327;42.622;23.316;2023-04-24T12:47:44;22.99;48.81
65637;DHT22;52327;42.622;23.316;2023-04-24T12:50:14;22.95;46.87
65637;DHT22;52327;42.622;23.316;2023-04-24T12:52:41;22.40;42.64
65637;DHT22;52327;42.622;23.316;2023-04-24T12:55:07;21.45;46.02
65637;DHT22;52327;42.622;23.316;2023-04-24T12:57:33;20.88;44.20
65637;DHT22;52327;42.622;23.316;2023-04-24T13:00:00;21.52;42.76
65637;DHT22;52327;42.622;23.316;2023-04-24T13:02:29;23.23;36.94
65637;DHT22;52327;42.622;23.316;2023-04-24T13:04:59;25.26;36.35
65637;DHT22;52327;42.622;23.316;2023-04-24T13:07:25;25.48;32.85
65637;DHT22;52327;42.622;23.316;2023-04-24T13:09:51;27.01;34.89
65637;DHT22;52327;42.622;23.316;2023-04-24T13:12:17;27.35;32.25
65637;DHT22;52327;42.622;23.316;2023-04-24T13:14:43;26.59;32.55
65637;DHT22;52327;42.622;23.316;2023-04-24T13:17:08;27.37;34.42
65637;DHT22;52327;42.622;23.316;2023-04-24T13:19:42;29.36;30.53
65637;DHT22;52327;42.622;23.316;2023-04-24T13:22:10;30.88;28.29
65637;DHT22;52327;42.622;23.316;2023-04-24T13:24:36;31.88;26.42
65637;DHT22;52327;42.622;23.316;2023-04-24T13:27:01;33.27;23.40
65637;DHT22;52327;42.622;23.316;2023-04-24T13:29:27;34.16;22.42
65637;DHT22;52327;42.622;23.316;2023-04-24T13:31:54;34.52;21.01
65637;DHT22;52327;42.622;23.316;2023-04-24T13:34:23;34.01;22.84
65637;DHT22;52327;42.622;23.316;2023-04-24T13:36:50;33.75;22.93
65637;DHT22;52327;42.622;23.316;2023-04-24T13:39:16;32.75;22.24
65637;DHT22;52327;42.622;23.316;2023-04-24T13:41:42;31.39;25.10
65637;DHT22;52327;42.622;23.316;2023-04-24T13:44:08;30.61;25.28
65637;DHT22;52327;42.622;23.316;2023-04-24T13:46:33;29.22;25.54
65637;DHT22;52327;42.622;23.316;2023-04-24T13:48:59;27.44;27.46
65637;DHT22;52327;42.622;23.316;2023-04-24T13:51:27;26.88;28.07
65637;DHT22;52327;42.622;23.316;2023-04-24T13:53:53;27.28;27.31
65637;DHT22;52327;42.622;23.316;2023-04-24T13:56:19;27.31;27.45
65637;DHT22;52327;42.622;23.316;2023-04-24T13:58:45;27.62;28.01
65637;DHT22;52327;42.622;23.316;2023-04-24T14:01:11;28.34;27.14
65637;DHT22;52327;42.622;23.316;2023-04-24T14:03:39;30.49;26.08
65637;DHT22;52327;42.622;23.316;2023-04-24T14:06:05;32.72;24.73
65637;DHT22;52327;42.622;23.316;2023-04-24T14:08:31;34.79;21.56
65637;DHT22;52327;42.622;23.316;2023-04-24T14:10:57;36.08;20.56
65637;DHT22;52327;42.622;23.316;2023-04-24T14:13:22;37.23;19.39
65637;DHT22;52327;42.622;23.316;2023-04-24T14:15:48;38.03;18.38
65637;DHT22;52327;42.622;23.316;2023-04-24T14:18:14;38.29;18.20
65637;DHT22;52327;42.622;23.316;2023-04-24T14:20:39;38.39;17.96
65637;DHT22;52327;42.622;23.316;2023-04-24T14:23:05;38.17;18.19
65637;DHT22;52327;42.622;23.316;2023-04-24T14:25:30;37.99;18.28
65637;DHT22;52327;42.622;23.316;2023-04-24T14:27:56;37.54;18.87
65637;DHT22;52327;42.622;23.316;2023-04-24T14:30:21;37.65;18.54
65637;DHT22;52327;42.622;23.316;2023-04-24T14:32:48;37.74;18.68
65637;DHT22;52327;42.622;23.316;2023-04-24T14:35:13;37.52;18.77
65637;DHT22;52327;42.622;23.316;2023-04-24T14:37:40;36.67;19.78
65637;DHT22;52327;42.622;23.316;2023-04-24T14:40:07;33.34;21.47
65637;DHT22;52327;42.622;23.316;2023-04-24T14:42:33;30.79;25.62
65637;DHT22;52327;42.622;23.316;2023-04-24T14:44:59;28.75;28.11
65637;DHT22;52327;42.622;23.316;2023-04-24T14:47:24;27.21;30.33
65637;DHT22;52327;42.622;23.316;2023-04-24T14:49:50;26.15;32.56
65637;DHT22;52327;42.622;23.316;2023-04-24T14:52:16;25.47;33.80
65637;DHT22;52327;42.622;23.316;2023-04-24T14:54:42;24.96;35.63
65637;DHT22;52327;42.622;23.316;2023-04-24T14:57:08;24.33;39.26
65637;DHT22;52327;42.622;23.316;2023-04-24T14:59:34;23.78;40.88
65637;DHT22;52327;42.622;23.316;2023-04-24T15:01:59;23.47;41.05
65637;DHT22;52327;42.622;23.316;2023-04-24T15:04:25;23.40;41.38
65637;DHT22;52327;42.622;23.316;2023-04-24T15:06:51;23.68;40.85
65637;DHT22;52327;42.622;23.316;2023-04-24T15:09:17;23.60;42.44
65637;DHT22;52327;42.622;23.316;2023-04-24T15:11:42;23.40;40.96
65637;DHT22;52327;42.622;23.316;2023-04-24T15:14:08;23.16;41.85
65637;DHT22;52327;42.622;23.316;2023-04-24T15:16:33;22.82;44.36
65637;DHT22;52327;42.622;23.316;2023-04-24T15:18:58;22.55;44.88
65637;DHT22;52327;42.622;23.316;2023-04-24T15:21:24;22.21;44.32
65637;DHT22;52327;42.622;23.316;2023-04-24T15:23:49;22.04;43.93
65637;DHT22;52327;42.622;23.316;2023-04-24T15:26:15;21.92;43.35
65637;DHT22;52327;42.622;23.316;2023-04-24T15:28:40;21.90;41.64
65637;DHT22;52327;42.622;23.316;2023-04-24T15:31:06;21.65;42.18
65637;DHT22;52327;42.622;23.316;2023-04-24T15:33:31;21.60;42.35
65637;DHT22;52327;42.622;23.316;2023-04-24T15:35:57;21.49;41.75
65637;DHT22;52327;42.622;23.316;2023-04-24T15:38:22;21.36;42.34
65637;DHT22;52327;42.622;23.316;2023-04-24T15:40:47;21.33;40.57
65637;DHT22;52327;42.622;23.316;2023-04-24T15:43:13;21.16;40.95
65637;DHT22;52327;42.622;23.316;2023-04-24T15:45:39;20.99;41.04
65637;DHT22;52327;42.622;23.316;2023-04-24T15:48:05;21.01;39.95
65637;DHT22;52327;42.622;23.316;2023-04-24T15:50:30;20.80;41.14
65637;DHT22;52327;42.622;23.316;2023-04-24T15:52:56;20.61;40.43
65637;DHT22;52327;42.622;23.316;2023-04-24T15:55:22;20.45;40.85
65637;DHT22;52327;42.622;23.316;2023-04-24T15:57:47;20.22;41.57
65637;DHT22;52327;42.622;23.316;2023-04-24T16:00:13;20.08;41.40
65637;DHT22;52327;42.622;23.316;2023-04-24T16:02:39;19.83;41.70
65637;DHT22;52327;42.622;23.316;2023-04-24T16:05:05;19.45;43.44
65637;DHT22;52327;42.622;23.316;2023-04-24T16:07:32;18.50;46.98
65637;DHT22;52327;42.622;23.316;2023-04-24T16:09:58;17.75;49.96
65637;DHT22;52327;42.622;23.316;2023-04-24T16:12:23;17.43;50.83
65637;DHT22;52327;42.622;23.316;2023-04-24T16:14:52;17.00;52.20
65637;DHT22;52327;42.622;23.316;2023-04-24T16:17:18;16.25;55.70
65637;DHT22;52327;42.622;23.316;2023-04-24T16:19:43;15.91;66.40
65637;DHT22;52327;42.622;23.316;2023-04-24T16:22:09;14.78;77.44
65637;DHT22;52327;42.622;23.316;2023-04-24T16:24:35;13.78;81.04
65637;DHT22;52327;42.622;23.316;2023-04-24T16:27:00;13.27;86.93
65637;DHT22;52327;42.622;23.316;2023-04-24T16:29:26;12.94;88.69
65637;DHT22;52327;42.622;23.316;2023-04-24T16:31:52;12.67;89.35
65637;DHT22;52327;42.622;23.316;2023-04-24T16:34:18;12.50;89.68
65637;DHT22;52327;42.622;23.316;2023-04-24T16:36:43;12.28;90.67
65637;DHT22;52327;42.622;23.316;2023-04-24T16:39:10;12.09;91.50
65637;DHT22;52327;42.622;23.316;2023-04-24T16:41:36;12.08;92.48
65637;DHT22;52327;42.622;23.316;2023-04-24T16:44:01;11.98;92.48
65637;DHT22;52327;42.622;23.316;2023-04-24T16:46:27;11.99;92.44
65637;DHT22;52327;42.622;23.316;2023-04-24T16:48:56;12.22;92.43
65637;DHT22;52327;42.622;23.316;2023-04-24T16:51:22;12.36;92.38
65637;DHT22;52327;42.622;23.316;2023-04-24T16:53:47;12.52;92.13
65637;DHT22;52327;42.622;23.316;2023-04-24T16:56:14;12.61;91.49
65637;DHT22;52327;42.622;23.316;2023-04-24T16:58:40;12.59;91.39
65637;DHT22;52327;42.622;23.316;2023-04-24T17:01:05;12.64;91.53
65637;DHT22;52327;42.622;23.316;2023-04-24T17:03:31;12.84;90.51
65637;DHT22;52327;42.622;23.316;2023-04-24T17:05:56;12.83;91.16
65637;DHT22;52327;42.622;23.316;2023-04-24T17:08:22;12.79;91.20
65637;DHT22;52327;42.622;23.316;2023-04-24T17:10:48;12.79;91.20
65637;DHT22;52327;42.622;23.316;2023-04-24T17:13:14;12.77;91.09
65637;DHT22;52327;42.622;23.316;2023-04-24T17:15:41;12.76;90.85
65637;DHT22;52327;42.622;23.316;2023-04-24T17:18:06;12.83;91.13
65637;DHT22;52327;42.622;23.316;2023-04-24T17:20:32;12.83;91.32
65637;DHT22;52327;42.622;23.316;2023-04-24T17:22:58;12.91;91.04
65637;DHT22;52327;42.622;23.316;2023-04-24T17:25:23;12.93;91.02
65637;DHT22;52327;42.622;23.316;2023-04-24T17:27:49;12.94;90.71
65637;DHT22;52327;42.622;23.316;2023-04-24T17:30:15;12.93;90.16
65637;DHT22;52327;42.622;23.316;2023-04-24T17:32:42;12.77;90.56
65637;DHT22;52327;42.622;23.316;2023-04-24T17:35:08;12.64;90.78
65637;DHT22;52327;42.622;23.316;2023-04-24T17:37:34;12.59;91.02
65637;DHT22;52327;42.622;23.316;2023-04-24T17:40:00;12.81;90.79
65637;DHT22;52327;42.622;23.316;2023-04-24T17:42:26;12.86;91.14
65637;DHT22;52327;42.622;23.316;2023-04-24T17:44:51;12.93;91.14
65637;DHT22;52327;42.622;23.316;2023-04-24T17:47:17;13.03;91.21
65637;DHT22;52327;42.622;23.316;2023-04-24T17:49:44;13.07;90.95
65637;DHT22;52327;42.622;23.316;2023-04-24T17:52:09;13.11;91.03
65637;DHT22;52327;42.622;23.316;2023-04-24T17:54:36;13.11;91.17
65637;DHT22;52327;42.622;23.316;2023-04-24T17:57:01;13.22;90.07
65637;DHT22;52327;42.622;23.316;2023-04-24T17:59:27;13.18;90.67
65637;DHT22;52327;42.622;23.316;2023-04-24T18:01:52;13.08;90.17
65637;DHT22;52327;42.622;23.316;2023-04-24T18:04:18;12.67;90.32
65637;DHT22;52327;42.622;23.316;2023-04-24T18:06:44;12.53;90.04
65637;DHT22;52327;42.622;23.316;2023-04-24T18:09:09;12.30;90.93
65637;DHT22;52327;42.622;23.316;2023-04-24T18:11:36;12.05;90.07
65637;DHT22;52327;42.622;23.316;2023-04-24T18:14:01;11.94;91.00
65637;DHT22;52327;42.622;23.316;2023-04-24T18:16:27;12.12;91.52
65637;DHT22;52327;42.622;23.316;2023-04-24T18:18:55;12.21;91.83
65637;DHT22;52327;42.622;23.316;2023-04-24T18:21:21;12.21;90.51
65637;DHT22;52327;42.622;23.316;2023-04-24T18:23:47;12.15;91.38
65637;DHT22;52327;42.622;23.316;2023-04-24T18:26:15;12.28;91.53
65637;DHT22;52327;42.622;23.316;2023-04-24T18:28:43;12.47;90.85
65637;DHT22;52327;42.622;23.316;2023-04-24T18:31:08;12.42;90.60
65637;DHT22;52327;42.622;23.316;2023-04-24T18:33:34;12.39;90.94
65637;DHT22;52327;42.622;23.316;2023-04-24T18:36:00;12.35;90.89
65637;DHT22;52327;42.622;23.316;2023-04-24T18:38:27;12.47;89.70
65637;DHT22;52327;42.622;23.316;2023-04-24T18:40:53;12.43;90.66
65637;DHT22;52327;42.622;23.316;2023-04-24T18:43:18;12.40;90.52
65637;DHT22;52327;42.622;23.316;2023-04-24T18:45:45;12.37;90.99
65637;DHT22;52327;42.622;23.316;2023-04-24T18:48:10;12.37;91.05
65637;DHT22;52327;42.622;23.316;2023-04-24T18:50:36;12.40;91.16
65637;DHT22;52327;42.622;23.316;2023-04-24T18:53:03;12.33;90.35
65637;DHT22;52327;42.622;23.316;2023-04-24T18:55:28;12.22;90.11
65637;DHT22;52327;42.622;23.316;2023-04-24T18:57:54;12.24;89.20
65637;DHT22;52327;42.622;23.316;2023-04-24T19:00:20;12.15;90.03
65637;DHT22;52327;42.622;23.316;2023-04-24T19:02:46;12.05;90.35
65637;DHT22;52327;42.622;23.316;2023-04-24T19:05:13;12.05;90.82
65637;DHT22;52327;42.622;23.316;2023-04-24T19:07:42;12.05;91.02
65637;DHT22;52327;42.622;23.316;2023-04-24T19:10:14;12.08;90.15
65637;DHT22;52327;42.622;23.316;2023-04-24T19:12:48;12.06;89.86
65637;DHT22;52327;42.622;23.316;2023-04-24T19:15:22;11.99;90.03
65637;DHT22;52327;42.622;23.316;2023-04-24T19:17:48;11.96;89.88
65637;DHT22;52327;42.622;23.316;2023-04-24T19:20:23;11.95;89.91
65637;DHT22;52327;42.622;23.316;2023-04-24T19:23:21;11.68;90.37
65637;DHT22;52327;42.622;23.316;2023-04-24T19:26:29;11.54;90.30
65637;DHT22;52327;42.622;23.316;2023-04-24T19:30:23;11.51;91.09
65637;DHT22;52327;42.622;23.316;2023-04-24T19:32:40;11.61;91.71
65637;DHT22;52327;42.622;23.316;2023-04-24T19:35:09;11.70;91.48
65637;DHT22;52327;42.622;23.316;2023-04-24T19:38:04;11.74;91.36
65637;DHT22;52327;42.622;23.316;2023-04-24T19:40:38;11.75;91.05
65637;DHT22;52327;42.622;23.316;2023-04-24T19:43:04;11.77;91.10
65637;DHT22;52327;42.622;23.316;2023-04-24T19:45:43;11.73;90.55
65637;DHT22;52327;42.622;23.316;2023-04-24T19:48:14;11.64;89.79
65637;DHT22;52327;42.622;23.316;2023-04-24T19:50:40;11.36;89.87
65637;DHT22;52327;42.622;23.316;2023-04-24T19:53:05;11.06;88.55
65637;DHT22;52327;42.622;23.316;2023-04-24T19:55:31;10.45;88.25
65637;DHT22;52327;42.622;23.316;2023-04-24T19:57:56;10.10;89.20
65637;DHT22;52327;42.622;23.316;2023-04-24T20:00:37;9.70;89.90
65637;DHT22;52327;42.622;23.316;2023-04-24T20:03:03;9.57;89.98
65637;DHT22;52327;42.622;23.316;2023-04-24T20:05:28;9.50;90.58
65637;DHT22;52327;42.622;23.316;2023-04-24T20:07:54;9.44;91.40
65637;DHT22;52327;42.622;23.316;2023-04-24T20:10:22;9.28;92.04
65637;DHT22;52327;42.622;23.316;2023-04-24T20:12:48;9.19;91.67
65637;DHT22;52327;42.622;23.316;2023-04-24T20:15:13;9.11;90.86
65637;DHT22;52327;42.622;23.316;2023-04-24T20:17:39;9.11;91.11
65637;DHT22;52327;42.622;23.316;2023-04-24T20:20:05;9.22;91.86
65637;DHT22;52327;42.622;23.316;2023-04-24T20:22:31;9.32;92.02
65637;DHT22;52327;42.622;23.316;2023-04-24T20:25:00;9.44;92.02
65637;DHT22;52327;42.622;23.316;2023-04-24T20:27:26;9.53;92.09
65637;DHT22;52327;42.622;23.316;2023-04-24T20:29:52;9.54;92.44
65637;DHT22;52327;42.622;23.316;2023-04-24T20:32:29;9.66;92.23
65637;DHT22;52327;42.622;23.316;2023-04-24T20:35:03;9.81;92.16